Time;durP1;ratioP1;P1;durP2;ratioP2;P2;SDS_P1;SDS_P2;PMS_P1;PMS_P2;Temp;Humidity;BMP_temperature;BMP_pressure;BME280_temperature;BME280_humidity;BME280_pressure;Samples;Min_cycle;Max_cycle;Signal;HPM_P1;HPM_P2
2023/09/15 00:01:12;;;;;;;4.10;1.45;;;;;;;11.62;100.00;101120.66;5056652;28;20040;-51
2023/09/15 00:03:38;;;;;;;2.55;0.35;;;;;;;11.64;100.00;101119.47;5057056;28;20032;-49
2023/09/15 00:06:04;;;;;;;3.10;0.57;;;;;;;11.63;100.00;101111.69;5060104;28;20032;-50
2023/09/15 00:08:29;;;;;;;1.92;1.17;;;;;;;11.55;100.00;101116.06;5057963;28;20030;-50
2023/09/15 00:10:54;;;;;;;3.72;1.40;;;;;;;11.44;100.00;101111.22;5048865;28;20036;-49
2023/09/15 00:13:20;;;;;;;1.17;0.43;;;;;;;11.38;100.00;101106.59;5049036;28;20047;-53
2023/09/15 00:15:50;;;;;;;0.57;0.45;;;;;;;11.38;100.00;101105.78;5047001;28;20575;-53
2023/09/15 00:18:15;;;;;;;1.27;0.45;;;;;;;11.34;100.00;101105.34;5049072;28;20037;-51
2023/09/15 00:20:40;;;;;;;1.17;0.38;;;;;;;11.31;100.00;101097.75;5060650;28;20031;-52
2023/09/15 00:23:06;;;;;;;1.05;0.80;;;;;;;11.28;100.00;101090.97;5050690;28;20108;-50
2023/09/15 00:25:32;;;;;;;1.55;0.82;;;;;;;11.26;100.00;101098.28;5053281;28;20037;-49
2023/09/15 00:27:59;;;;;;;1.10;0.28;;;;;;;11.28;100.00;101095.44;5048978;28;20112;-50
2023/09/15 00:30:27;;;;;;;1.25;0.43;;;;;;;11.22;100.00;101093.50;5049099;28;20939;-48
2023/09/15 00:32:52;;;;;;;0.30;0.15;;;;;;;11.20;100.00;101091.00;5056968;28;20114;-51
2023/09/15 00:35:20;;;;;;;1.02;0.57;;;;;;;11.12;100.00;101086.59;5050676;28;20482;-50
2023/09/15 00:37:46;;;;;;;0.68;0.68;;;;;;;11.17;100.00;101085.25;5050184;28;20117;-48
2023/09/15 00:40:16;;;;;;;0.43;0.15;;;;;;;11.10;100.00;101085.13;5061231;28;20431;-50
2023/09/15 00:42:43;;;;;;;2.03;0.63;;;;;;;11.12;100.00;101080.47;5064652;28;20404;-49
2023/09/15 00:45:14;;;;;;;3.70;1.85;;;;;;;11.06;100.00;101081.22;5057800;28;20032;-49
2023/09/15 00:47:39;;;;;;;1.63;0.20;;;;;;;10.98;100.00;101068.03;5049494;28;20036;-48
2023/09/15 00:50:05;;;;;;;1.27;0.22;;;;;;;10.86;100.00;101070.25;5052907;28;21455;-50
2023/09/15 00:52:33;;;;;;;0.73;0.40;;;;;;;10.88;100.00;101077.03;5051324;28;20061;-48
2023/09/15 00:55:00;;;;;;;2.67;1.00;;;;;;;10.82;100.00;101071.63;5056970;28;20032;-51
2023/09/15 00:57:26;;;;;;;1.52;0.45;;;;;;;10.79;100.00;101074.63;5056178;28;20056;-51
2023/09/15 00:59:52;;;;;;;4.78;0.60;;;;;;;10.82;100.00;101068.97;5058618;28;20029;-50
2023/09/15 01:02:18;;;;;;;0.80;0.70;;;;;;;10.82;100.00;101066.31;5056929;28;20037;-50
2023/09/15 01:04:44;;;;;;;1.23;0.68;;;;;;;10.79;100.00;101067.50;5053870;28;20024;-50
2023/09/15 01:07:10;;;;;;;2.65;0.50;;;;;;;10.76;100.00;101061.72;5060810;28;20038;-52
2023/09/15 01:09:36;;;;;;;1.42;0.30;;;;;;;10.72;100.00;101055.13;5055303;28;20040;-51
2023/09/15 01:12:01;;;;;;;1.50;0.70;;;;;;;10.69;100.00;101057.13;5052710;28;20063;-50
2023/09/15 01:14:27;;;;;;;3.42;0.45;;;;;;;10.70;100.00;101056.13;5050835;28;20396;-51
2023/09/15 01:17:19;;;;;;;1.17;0.60;;;;;;;10.74;100.00;101050.44;5043637;28;20032;-51
2023/09/15 01:19:50;;;;;;;0.30;0.30;;;;;;;10.69;100.00;101046.53;5051947;28;20152;-51
2023/09/15 01:22:44;;;;;;;1.17;0.17;;;;;;;10.60;100.00;101047.56;5049619;28;20045;-50
2023/09/15 01:25:22;;;;;;;1.38;0.32;;;;;;;10.54;100.00;101044.81;5047659;28;20097;-52
2023/09/15 01:28:16;;;;;;;0.93;0.65;;;;;;;10.50;100.00;101046.97;5052622;28;20037;-52
2023/09/15 01:30:44;;;;;;;1.25;0.63;;;;;;;10.53;100.00;101043.16;5057787;28;20020;-49
2023/09/15 01:33:11;;;;;;;0.82;0.35;;;;;;;10.52;100.00;101049.47;5060248;28;20720;-49
2023/09/15 01:35:36;;;;;;;1.55;0.35;;;;;;;10.48;100.00;101046.38;5045139;28;20040;-49
2023/09/15 01:38:02;;;;;;;9.95;0.85;;;;;;;10.41;100.00;101040.94;5051946;28;20851;-52
2023/09/15 01:40:27;;;;;;;2.22;0.77;;;;;;;10.32;100.00;101039.31;5052253;28;20397;-49
2023/09/15 01:42:54;;;;;;;1.23;0.65;;;;;;;10.26;100.00;101040.81;5058977;28;20025;-49
2023/09/15 01:45:20;;;;;;;1.05;0.60;;;;;;;10.23;100.00;101035.88;5053204;28;20037;-50
2023/09/15 01:47:47;;;;;;;0.95;0.95;;;;;;;10.23;100.00;101046.47;5051556;28;20036;-49
2023/09/15 01:50:15;;;;;;;0.93;0.43;;;;;;;10.18;100.00;101045.34;5056873;28;20078;-50
2023/09/15 01:52:42;;;;;;;0.28;0.20;;;;;;;10.17;100.00;101041.88;5054677;28;20236;-50
2023/09/15 01:55:08;;;;;;;0.47;0.38;;;;;;;10.12;100.00;101038.94;5051632;28;20493;-49
2023/09/15 01:57:33;;;;;;;0.50;0.50;;;;;;;10.06;100.00;101034.31;5054082;28;20056;-51
2023/09/15 01:59:58;;;;;;;2.72;1.17;;;;;;;10.06;100.00;101039.59;5049701;28;20115;-49
2023/09/15 02:02:24;;;;;;;0.40;0.20;;;;;;;10.07;100.00;101035.97;5046664;28;20112;-50
2023/09/15 02:04:49;;;;;;;0.35;0.30;;;;;;;9.99;100.00;101036.84;5053391;28;20105;-48
2023/09/15 02:07:15;;;;;;;0.57;0.28;;;;;;;9.93;100.00;101036.69;5052083;28;20060;-50
2023/09/15 02:09:40;;;;;;;0.65;0.65;;;;;;;9.92;100.00;101027.94;5053896;28;20112;-51
2023/09/15 02:12:06;;;;;;;0.30;0.10;;;;;;;9.90;100.00;101029.09;5060937;28;20447;-54
2023/09/15 02:14:32;;;;;;;0.22;0.22;;;;;;;9.84;100.00;101035.91;5066119;28;20025;-53
2023/09/15 02:16:57;;;;;;;1.08;0.63;;;;;;;9.79;100.00;101028.50;5059425;28;20032;-53
2023/09/15 02:19:24;;;;;;;3.85;0.50;;;;;;;9.77;100.00;101035.78;5057540;28;20153;-52
2023/09/15 02:21:49;;;;;;;1.20;1.17;;;;;;;9.75;100.00;101034.28;5059073;28;20054;-50
2023/09/15 02:24:16;;;;;;;0.45;0.20;;;;;;;9.69;100.00;101037.63;5058538;28;20043;-53
2023/09/15 02:26:41;;;;;;;1.02;0.85;;;;;;;9.62;100.00;101040.13;5063376;28;20088;-52
2023/09/15 02:29:07;;;;;;;0.63;0.40;;;;;;;9.59;100.00;101038.66;5060050;28;20200;-49
2023/09/15 02:31:32;;;;;;;0.68;0.68;;;;;;;9.56;100.00;101035.53;5048303;28;20434;-52
2023/09/15 02:33:59;;;;;;;1.17;0.50;;;;;;;9.52;100.00;101042.16;5058891;28;20044;-52
2023/09/15 02:36:26;;;;;;;1.95;0.28;;;;;;;9.49;100.00;101032.72;5058337;28;20033;-50
2023/09/15 02:38:54;;;;;;;2.85;0.35;;;;;;;9.48;100.00;101024.97;5054203;28;20074;-52
2023/09/15 02:41:19;;;;;;;0.57;0.30;;;;;;;9.50;100.00;101034.41;5054933;28;20574;-50
2023/09/15 02:43:48;;;;;;;1.95;1.17;;;;;;;9.48;100.00;101031.09;5060158;28;20175;-53
2023/09/15 02:46:13;;;;;;;2.85;0.38;;;;;;;9.49;100.00;101029.25;5061665;28;20037;-52
2023/09/15 02:48:39;;;;;;;2.47;0.50;;;;;;;9.49;100.00;101029.25;5058694;28;20044;-54
2023/09/15 02:51:05;;;;;;;1.15;1.05;;;;;;;9.47;100.00;101023.31;5048113;28;20040;-48
2023/09/15 02:53:30;;;;;;;1.10;1.00;;;;;;;9.47;100.00;101040.00;5053560;28;20549;-52
2023/09/15 02:55:58;;;;;;;1.23;0.50;;;;;;;9.52;100.00;101034.22;5056438;28;20462;-53
2023/09/15 02:58:23;;;;;;;3.47;1.10;;;;;;;9.53;100.00;101023.47;5053518;28;20470;-52
2023/09/15 03:00:48;;;;;;;1.52;0.60;;;;;;;9.53;100.00;101028.75;5052657;28;20044;-51
2023/09/15 03:03:14;;;;;;;1.98;0.73;;;;;;;9.50;100.00;101034.41;5056561;28;20040;-50
2023/09/15 03:05:39;;;;;;;1.58;0.80;;;;;;;9.54;100.00;101030.41;5059899;28;20161;-48
2023/09/15 03:08:04;;;;;;;3.50;1.33;;;;;;;9.64;100.00;101034.69;5060127;28;20127;-51
2023/09/15 03:10:34;;;;;;;9.60;2.28;;;;;;;9.62;100.00;101037.50;5061779;28;20556;-50
2023/09/15 03:13:00;;;;;;;8.18;1.58;;;;;;;9.61;100.00;101028.72;5053970;28;20123;-51
2023/09/15 03:15:25;;;;;;;2.40;1.02;;;;;;;9.64;100.00;101032.03;5058327;28;20119;-53
2023/09/15 03:17:50;;;;;;;2.97;1.58;;;;;;;9.65;100.00;101031.84;5055269;28;20142;-51
2023/09/15 03:20:17;;;;;;;3.35;1.30;;;;;;;9.64;100.00;101024.09;5058145;28;20445;-55
2023/09/15 03:22:43;;;;;;;1.98;0.85;;;;;;;9.52;100.00;101026.28;5069333;28;20025;-48
2023/09/15 03:25:09;;;;;;;1.77;0.90;;;;;;;9.62;100.00;101026.91;5058035;28;20025;-55
2023/09/15 03:27:35;;;;;;;2.83;1.73;;;;;;;9.63;100.00;101023.28;5065479;28;20036;-49
2023/09/15 03:30:01;;;;;;;2.53;1.75;;;;;;;9.63;100.00;101022.41;5047270;28;20040;-54
2023/09/15 03:32:26;;;;;;;4.90;2.70;;;;;;;9.61;100.00;101017.31;5061286;28;20055;-50
2023/09/15 03:34:51;;;;;;;6.95;3.13;;;;;;;9.63;100.00;101012.69;5055036;28;20421;-49
2023/09/15 03:37:17;;;;;;;4.72;2.20;;;;;;;9.71;100.00;101012.63;5056934;28;20059;-55
2023/09/15 03:39:42;;;;;;;3.00;2.35;;;;;;;9.77;100.00;101008.47;5058329;28;20029;-51
2023/09/15 03:42:08;;;;;;;2.53;1.77;;;;;;;9.81;100.00;101010.59;5066672;28;20028;-52
2023/09/15 03:44:33;;;;;;;2.20;2.00;;;;;;;9.83;100.00;101005.97;5057932;28;20116;-50
2023/09/15 03:46:59;;;;;;;5.38;2.22;;;;;;;9.80;100.00;101010.78;5051658;28;20503;-48
2023/09/15 03:49:24;;;;;;;2.65;1.65;;;;;;;9.79;100.00;101003.84;5059215;28;20302;-49
2023/09/15 03:51:50;;;;;;;5.03;1.88;;;;;;;9.75;100.00;101005.16;5052401;28;20024;-51
2023/09/15 03:54:15;;;;;;;2.38;1.73;;;;;;;9.71;100.00;100999.41;5052967;28;20045;-51
2023/09/15 03:56:40;;;;;;;2.72;2.03;;;;;;;9.75;100.00;101005.16;5061131;28;20036;-51
2023/09/15 03:59:06;;;;;;;3.00;1.77;;;;;;;9.80;100.00;101002.81;5055678;28;20032;-53
2023/09/15 04:01:32;;;;;;;2.63;2.33;;;;;;;9.81;100.00;100997.38;5054588;28;20033;-51
2023/09/15 04:03:59;;;;;;;4.03;2.17;;;;;;;9.82;100.00;100982.28;5055613;28;20032;-53
2023/09/15 04:06:24;;;;;;;2.65;2.17;;;;;;;9.90;100.00;100986.72;5052946;28;20032;-52
2023/09/15 04:08:50;;;;;;;5.55;2.28;;;;;;;9.94;100.00;100982.72;5055564;28;20032;-53
2023/09/15 04:11:15;;;;;;;4.20;1.98;;;;;;;9.88;100.00;100984.25;5049008;28;20033;-53
2023/09/15 04:13:41;;;;;;;4.65;2.28;;;;;;;9.83;100.00;100976.84;5066171;28;20479;-53
2023/09/15 04:16:06;;;;;;;3.83;1.95;;;;;;;9.81;100.00;100981.47;5056739;28;21479;-51
2023/09/15 04:18:34;;;;;;;7.75;2.72;;;;;;;9.77;100.00;100984.63;5058998;28;20120;-53
2023/09/15 04:21:00;;;;;;;3.83;2.33;;;;;;;9.73;100.00;100985.97;5047575;28;20033;-50
2023/09/15 04:23:25;;;;;;;4.40;2.00;;;;;;;9.76;100.00;100991.75;5055651;28;20056;-48
2023/09/15 04:25:51;;;;;;;7.80;2.17;;;;;;;9.76;100.00;100989.13;5049487;28;20029;-53
2023/09/15 04:28:16;;;;;;;3.22;2.55;;;;;;;9.76;100.00;100993.59;5060178;28;20040;-52
2023/09/15 04:30:42;;;;;;;3.72;2.63;;;;;;;9.75;100.00;100990.09;5058267;28;20033;-49
2023/09/15 04:33:07;;;;;;;7.63;2.58;;;;;;;9.78;100.00;100995.06;5047622;28;20032;-53
2023/09/15 04:35:33;;;;;;;3.42;2.05;;;;;;;9.81;100.00;100989.41;5053611;28;20024;-49
2023/09/15 04:37:58;;;;;;;2.20;2.03;;;;;;;9.76;100.00;100990.94;5061080;28;20045;-50
2023/09/15 04:40:24;;;;;;;3.33;2.05;;;;;;;9.71;100.00;100988.00;5053599;28;20032;-52
2023/09/15 04:42:49;;;;;;;5.22;2.75;;;;;;;9.71;100.00;100983.50;5051753;28;20068;-49
2023/09/15 04:45:15;;;;;;;3.10;2.22;;;;;;;9.64;100.00;100981.72;5055983;28;20111;-51
2023/09/15 04:47:40;;;;;;;2.05;1.83;;;;;;;9.59;100.00;100984.88;5052103;28;20055;-53
2023/09/15 04:50:07;;;;;;;4.53;2.65;;;;;;;9.61;100.00;100982.91;5048660;28;20025;-49
2023/09/15 04:52:32;;;;;;;1.95;1.73;;;;;;;9.61;100.00;100977.59;5053263;28;20468;-48
2023/09/15 04:54:58;;;;;;;3.85;1.98;;;;;;;9.59;100.00;100982.25;5052419;28;20043;-50
2023/09/15 04:57:24;;;;;;;6.78;2.90;;;;;;;9.61;100.00;100982.91;5039321;28;20036;-51
2023/09/15 04:59:53;;;;;;;9.40;3.20;;;;;;;9.65;100.00;100986.00;5048322;28;20044;-52
2023/09/15 05:02:18;;;;;;;3.50;2.10;;;;;;;9.65;100.00;100983.38;5060747;28;20037;-49
2023/09/15 05:04:43;;;;;;;4.03;2.35;;;;;;;9.66;100.00;100979.75;5056585;28;20028;-51
2023/09/15 05:07:09;;;;;;;3.25;2.67;;;;;;;9.65;100.00;100984.19;5057553;28;20024;-50
2023/09/15 05:09:34;;;;;;;4.65;2.63;;;;;;;9.64;100.00;100989.66;5057211;28;20569;-48
2023/09/15 05:12:00;;;;;;;4.07;2.83;;;;;;;9.64;100.00;100982.53;5050604;28;20038;-51
2023/09/15 05:14:25;;;;;;;3.03;1.98;;;;;;;9.63;100.00;100974.75;5056360;28;20039;-53
2023/09/15 05:16:50;;;;;;;4.18;2.45;;;;;;;9.62;100.00;100973.94;5054934;28;20452;-50
2023/09/15 05:19:16;;;;;;;3.08;1.92;;;;;;;9.58;100.00;100978.78;5049990;28;20507;-54
2023/09/15 05:21:41;;;;;;;2.25;2.03;;;;;;;9.59;100.00;100979.59;5050149;28;20046;-50
2023/09/15 05:24:07;;;;;;;11.63;3.65;;;;;;;9.52;100.00;100973.31;5053971;28;20130;-51
2023/09/15 05:26:32;;;;;;;3.05;2.38;;;;;;;9.50;100.00;100975.31;5060957;28;20036;-52
2023/09/15 05:28:57;;;;;;;6.07;3.28;;;;;;;9.47;100.00;100968.53;5053062;28;20420;-51
2023/09/15 05:31:25;;;;;;;3.80;3.03;;;;;;;9.45;100.00;100973.19;5051874;28;20048;-51
2023/09/15 05:33:53;;;;;;;5.07;3.15;;;;;;;9.41;100.00;100971.06;5050201;28;20029;-50
2023/09/15 05:36:18;;;;;;;3.22;2.38;;;;;;;9.34;100.00;100974.38;5047081;28;20040;-48
2023/09/15 05:38:44;;;;;;;8.85;2.83;;;;;;;9.33;100.00;100972.75;5057465;28;20024;-51
2023/09/15 05:41:09;;;;;;;8.93;3.72;;;;;;;9.34;100.00;100978.84;5052128;28;20063;-50
2023/09/15 05:43:34;;;;;;;3.08;2.08;;;;;;;9.34;100.00;100966.44;5046510;28;20509;-52
2023/09/15 05:45:59;;;;;;;3.92;2.45;;;;;;;9.36;100.00;100968.94;5047560;28;20021;-53
2023/09/15 05:48:26;;;;;;;3.35;2.88;;;;;;;9.35;100.00;100970.75;5049460;28;20039;-48
2023/09/15 05:50:52;;;;;;;2.88;2.67;;;;;;;9.36;100.00;100972.38;5053128;28;20032;-51
2023/09/15 05:53:17;;;;;;;5.07;2.35;;;;;;;9.33;100.00;100972.75;5046952;28;20119;-48
2023/09/15 05:55:42;;;;;;;3.00;2.10;;;;;;;9.34;100.00;100977.03;5047211;28;20462;-51
2023/09/15 05:58:08;;;;;;;2.95;2.17;;;;;;;9.36;100.00;100976.88;5048946;28;20025;-51
2023/09/15 06:00:33;;;;;;;2.70;2.17;;;;;;;9.36;100.00;100976.88;5044655;28;20319;-50
2023/09/15 06:02:58;;;;;;;6.22;2.15;;;;;;;9.37;100.00;100976.72;5052863;28;20616;-48
2023/09/15 06:05:25;;;;;;;7.72;2.33;;;;;;;9.37;100.00;100979.34;5056841;28;20432;-53
2023/09/15 06:07:54;;;;;;;3.90;2.58;;;;;;;9.43;100.00;100979.66;5048984;28;20033;-48
2023/09/15 06:10:20;;;;;;;5.18;2.65;;;;;;;9.47;100.00;100986.25;5049893;28;20476;-51
2023/09/15 06:12:48;;;;;;;3.13;2.40;;;;;;;9.46;100.00;100982.78;5051720;28;20036;-50
2023/09/15 06:15:14;;;;;;;2.40;1.98;;;;;;;9.49;100.00;100978.97;5049236;28;20082;-52
2023/09/15 06:17:39;;;;;;;2.33;1.83;;;;;;;9.49;100.00;100977.13;5049525;28;20445;-50
2023/09/15 06:20:05;;;;;;;3.78;2.65;;;;;;;9.50;100.00;100973.50;5045991;28;20582;-53
2023/09/15 06:22:30;;;;;;;4.32;3.15;;;;;;;9.50;100.00;100972.66;5053428;28;20541;-48
2023/09/15 06:24:55;;;;;;;5.40;4.13;;;;;;;9.49;100.00;100973.69;5055072;28;20025;-50
2023/09/15 06:27:21;;;;;;;2.97;2.72;;;;;;;9.51;100.00;100977.81;5052495;28;20039;-51
2023/09/15 06:29:46;;;;;;;2.67;1.70;;;;;;;9.51;100.00;100972.50;5055745;28;20286;-50
2023/09/15 06:32:12;;;;;;;8.45;3.60;;;;;;;9.57;100.00;100977.09;5053076;28;20092;-51
2023/09/15 06:34:38;;;;;;;2.65;2.45;;;;;;;9.62;100.00;100973.94;5053758;28;20032;-49
2023/09/15 06:37:03;;;;;;;2.72;2.47;;;;;;;9.69;100.00;100974.09;5051575;28;20029;-48
2023/09/15 06:39:29;;;;;;;3.67;2.38;;;;;;;9.77;100.00;100968.75;5049078;28;20105;-48
2023/09/15 06:41:55;;;;;;;4.15;2.60;;;;;;;9.86;100.00;100970.38;5052152;28;20036;-51
2023/09/15 06:44:20;;;;;;;7.60;2.65;;;;;;;9.95;100.00;100971.94;5046364;28;20133;-50
2023/09/15 06:46:46;;;;;;;4.07;3.03;;;;;;;9.97;100.00;100979.75;5056491;28;20441;-51
2023/09/15 06:49:12;;;;;;;3.00;2.60;;;;;;;9.94;100.00;100969.47;5054168;28;20104;-51
2023/09/15 06:51:37;;;;;;;4.75;2.65;;;;;;;9.96;100.00;100964.81;5069977;28;20032;-51
2023/09/15 06:54:02;;;;;;;2.80;2.50;;;;;;;9.98;100.00;100971.59;5058406;28;20031;-49
2023/09/15 06:56:28;;;;;;;3.63;2.63;;;;;;;10.05;100.00;100972.56;5054879;28;20059;-52
2023/09/15 06:58:54;;;;;;;3.97;3.05;;;;;;;10.14;100.00;100965.38;5055397;28;20228;-48
2023/09/15 07:01:19;;;;;;;4.55;2.33;;;;;;;10.21;100.00;100971.63;5053353;28;20345;-51
2023/09/15 07:03:45;;;;;;;3.72;2.90;;;;;;;10.25;100.00;100966.81;5054341;28;20024;-48
2023/09/15 07:06:10;;;;;;;3.53;2.22;;;;;;;10.32;100.00;100969.59;5049710;28;20028;-52
2023/09/15 07:08:35;;;;;;;2.88;1.58;;;;;;;10.39;100.00;100967.88;5061478;28;20060;-53
2023/09/15 07:11:01;;;;;;;2.38;1.95;;;;;;;10.45;100.00;100968.00;5054643;28;20032;-51
2023/09/15 07:13:26;;;;;;;1.88;1.75;;;;;;;10.53;100.00;100963.63;5056290;28;20039;-51
2023/09/15 07:15:51;;;;;;;1.88;1.75;;;;;;;10.65;100.00;100976.28;5059236;28;20024;-51
2023/09/15 07:18:17;;;;;;;13.68;4.32;;;;;;;10.80;100.00;100971.00;5053411;28;20539;-48
2023/09/15 07:20:42;;;;;;;2.45;1.88;;;;;;;10.95;100.00;100975.53;5058034;28;20123;-52
2023/09/15 07:23:07;;;;;;;2.58;1.60;;;;;;;10.99;100.00;100982.09;5060806;28;20039;-50
2023/09/15 07:25:33;;;;;;;1.88;1.70;;;;;;;11.10;100.00;100978.97;5071128;28;20107;-52
2023/09/15 07:27:58;;;;;;;3.35;2.63;;;;;;;11.17;100.00;100979.09;5048988;28;20036;-50
2023/09/15 07:30:25;;;;;;;5.38;3.17;;;;;;;11.22;100.00;100980.19;5051890;28;20725;-51
2023/09/15 07:32:51;;;;;;;3.47;2.33;;;;;;;11.29;100.00;100972.31;5057543;28;20501;-50
2023/09/15 07:35:16;;;;;;;4.68;3.10;;;;;;;11.42;100.00;100977.81;5053382;28;20051;-51
2023/09/15 07:37:42;;;;;;;2.83;1.85;;;;;;;11.60;100.00;100979.25;5052652;28;20490;-53
2023/09/15 07:40:08;;;;;;;2.95;2.42;;;;;;;11.72;100.00;100978.59;5048871;28;20728;-51
2023/09/15 07:42:34;;;;;;;2.47;2.15;;;;;;;11.88;100.00;100972.25;5055345;28;20074;-48
2023/09/15 07:45:00;;;;;;;3.90;3.00;;;;;;;12.21;100.00;100969.97;5053146;28;20135;-52
2023/09/15 07:47:25;;;;;;;2.92;2.45;;;;;;;12.41;100.00;100967.47;5049998;28;20066;-50
2023/09/15 07:49:54;;;;;;;3.95;3.15;;;;;;;12.57;100.00;100960.22;5051592;28;20037;-51
2023/09/15 07:52:22;;;;;;;4.60;3.13;;;;;;;12.72;100.00;100963.63;5059465;28;20055;-54
2023/09/15 07:54:47;;;;;;;9.50;4.10;;;;;;;12.90;100.00;100960.47;5055270;28;20481;-51
2023/09/15 07:57:12;;;;;;;6.35;3.35;;;;;;;13.13;100.00;100962.88;5056475;28;20032;-53
2023/09/15 07:59:38;;;;;;;4.82;2.92;;;;;;;13.34;100.00;100962.00;5050552;28;20059;-50
2023/09/15 08:02:06;;;;;;;4.53;2.50;;;;;;;13.58;100.00;100959.84;5053244;28;20040;-51
2023/09/15 08:04:32;;;;;;;4.43;2.97;;;;;;;13.79;100.00;100959.72;5047921;28;20020;-50
2023/09/15 08:06:57;;;;;;;11.18;3.80;;;;;;;14.01;100.00;100962.25;5058681;28;20105;-49
2023/09/15 08:09:22;;;;;;;7.72;3.40;;;;;;;14.22;100.00;100959.41;5056618;28;20102;-52
2023/09/15 08:11:48;;;;;;;6.78;4.13;;;;;;;14.45;100.00;100966.19;5056065;28;20032;-52
2023/09/15 08:14:13;;;;;;;4.30;3.25;;;;;;;14.63;100.00;100957.59;5052071;28;20039;-49
2023/09/15 08:16:38;;;;;;;4.78;3.47;;;;;;;14.88;100.00;100963.13;5049979;28;20041;-51
2023/09/15 08:19:04;;;;;;;3.65;3.22;;;;;;;15.07;100.00;100956.13;5050990;28;21597;-51
2023/09/15 08:21:29;;;;;;;5.03;3.63;;;;;;;15.19;100.00;100957.94;5045992;28;20040;-51
2023/09/15 08:23:55;;;;;;;6.82;3.92;;;;;;;15.36;100.00;100949.44;5057655;28;20086;-52
2023/09/15 08:26:20;;;;;;;3.05;2.75;;;;;;;15.43;100.00;100956.41;5050400;28;20243;-53
2023/09/15 08:28:46;;;;;;;3.90;3.60;;;;;;;15.62;100.00;100960.06;5056254;28;20040;-54
2023/09/15 08:31:11;;;;;;;3.47;2.78;;;;;;;15.90;100.00;100956.22;5053259;28;20123;-54
2023/09/15 08:33:37;;;;;;;8.35;3.47;;;;;;;16.13;100.00;100950.31;5066126;28;20030;-54
2023/09/15 08:36:05;;;;;;;3.00;2.72;;;;;;;16.30;100.00;100946.09;5051420;28;20052;-54
2023/09/15 08:38:32;;;;;;;3.33;2.78;;;;;;;16.51;100.00;100944.88;5055610;28;20429;-55
2023/09/15 08:41:12;;;;;;;2.35;1.92;;;;;;;16.74;100.00;100943.47;5045771;28;20398;-51
2023/09/15 08:43:38;;;;;;;8.57;3.40;;;;;;;17.06;100.00;100944.19;5050259;28;20040;-54
2023/09/15 08:46:05;;;;;;;7.20;3.10;;;;;;;17.70;100.00;100928.56;5057846;28;20029;-55
2023/09/15 08:48:36;;;;;;;2.47;1.95;;;;;;;18.18;100.00;100924.22;5049376;28;20044;-50
2023/09/15 08:51:03;;;;;;;2.28;1.60;;;;;;;18.19;100.00;100917.78;5058476;28;20077;-51
2023/09/15 08:53:29;;;;;;;1.92;1.33;;;;;;;18.09;100.00;100908.41;5047403;28;20108;-53
2023/09/15 08:55:55;;;;;;;4.22;1.65;;;;;;;18.17;100.00;100909.16;5048816;28;20025;-50
2023/09/15 08:58:21;;;;;;;6.13;2.20;;;;;;;18.22;100.00;100909.28;5052230;28;20086;-51
2023/09/15 09:00:46;;;;;;;2.28;1.35;;;;;;;18.26;100.00;100897.84;5051644;28;20060;-56
2023/09/15 09:03:14;;;;;;;2.75;0.82;;;;;;;18.40;100.00;100903.78;5050543;28;20039;-52
2023/09/15 09:05:46;;;;;;;2.55;1.42;;;;;;;18.43;100.00;100895.31;5059983;28;20046;-51
2023/09/15 09:08:12;;;;;;;1.55;1.02;;;;;;;18.59;100.00;100892.97;5047361;28;20039;-57
2023/09/15 09:10:38;;;;;;;3.15;0.93;;;;;;;18.73;100.00;100884.41;5054851;28;20042;-53
2023/09/15 09:13:03;;;;;;;0.60;0.60;;;;;;;18.85;100.00;100876.38;5057448;28;20360;-54
2023/09/15 09:15:32;;;;;;;0.57;0.38;;;;;;;18.93;100.00;100873.34;5052397;28;20033;-52
2023/09/15 09:17:57;;;;;;;1.42;0.55;;;;;;;19.06;100.00;100866.88;5049716;28;20036;-51
2023/09/15 09:20:27;;;;;;;0.43;0.30;;;;;;;19.26;100.00;100865.63;5050841;28;20267;-51
2023/09/15 09:22:53;;;;;;;0.68;0.30;;;;;;;19.37;100.00;100862.91;5053136;28;20025;-52
2023/09/15 09:25:28;;;;;;;3.13;0.68;;;;;;;19.43;100.00;100850.38;5067583;28;20032;-52
2023/09/15 09:27:55;;;;;;;2.45;0.88;;;;;;;19.57;100.00;100846.34;5055950;28;20055;-53
2023/09/15 09:30:23;;;;;;;2.40;0.82;;;;;;;19.67;100.00;100837.69;5064706;28;20047;-52
2023/09/15 09:32:49;;;;;;;0.90;0.90;;;;;;;19.69;100.00;100822.09;5050696;28;20377;-54
2023/09/15 09:35:15;;;;;;;1.73;0.47;;;;;;;19.71;100.00;100822.66;5054392;28;20344;-51
2023/09/15 09:37:40;;;;;;;3.33;0.70;;;;;;;19.56;100.00;100817.81;5055552;28;20025;-50
2023/09/15 09:40:06;;;;;;;2.00;0.73;;;;;;;19.74;100.00;100816.78;5057786;28;20509;-49
2023/09/15 09:42:34;;;;;;;3.15;0.90;;;;;;;19.90;100.00;100812.47;5066746;28;20028;-54
2023/09/15 09:45:00;;;;;;;0.82;0.30;;;;;;;20.06;100.00;100800.09;5049789;28;20049;-50
2023/09/15 09:47:26;;;;;;;5.85;1.40;;;;;;;20.18;100.00;100800.78;5047666;28;20082;-54
2023/09/15 09:49:54;;;;;;;2.65;0.43;;;;;;;20.33;100.00;100796.69;5054660;28;20036;-55
2023/09/15 09:52:21;;;;;;;5.45;0.50;;;;;;;20.59;100.00;100795.19;5050672;28;20063;-55
2023/09/15 09:54:53;;;;;;;2.63;0.45;;;;;;;20.80;100.00;100782.78;5056498;28;20027;-52
2023/09/15 09:57:19;;;;;;;;;;;;;;;20.69;100.00;100765.69;5053910;28;20028;-50
2023/09/15 09:59:44;;;;;;;1.45;0.80;;;;;;;20.90;100.00;100762.16;5047342;28;19928;-51
2023/09/15 10:02:11;;;;;;;1.02;0.38;;;;;;;21.03;100.00;100760.94;5053876;28;20064;-50
2023/09/15 10:04:36;;;;;;;1.55;0.20;;;;;;;20.97;100.00;100761.16;5053148;28;20036;-51
2023/09/15 10:07:03;;;;;;;2.75;0.30;;;;;;;20.94;100.00;100756.28;5046638;28;20490;-53
2023/09/15 10:09:30;;;;;;;8.18;1.30;;;;;;;21.00;100.00;100755.25;5048571;28;20111;-52
2023/09/15 10:11:56;;;;;;;1.45;0.30;;;;;;;21.24;100.00;100750.38;5063236;28;20074;-49
2023/09/15 10:14:23;;;;;;;2.10;0.80;;;;;;;21.36;100.00;100748.31;5055361;28;20508;-51
2023/09/15 10:16:49;;;;;;;3.20;0.40;;;;;;;21.38;100.00;100762.41;5053312;28;20673;-54
2023/09/15 10:19:15;;;;;;;4.03;0.10;;;;;;;21.42;100.00;100751.91;5055279;28;20032;-53
2023/09/15 10:21:42;;;;;;;1.67;0.10;;;;;;;21.46;100.00;100751.16;5046288;28;20037;-50
2023/09/15 10:24:09;;;;;;;2.30;0.28;;;;;;;21.80;100.00;100748.16;5053553;28;20479;-54
2023/09/15 10:26:38;;;;;;;1.17;0.20;;;;;;;22.20;100.00;100750.34;5057141;28;20571;-52
2023/09/15 10:29:04;;;;;;;2.20;0.20;;;;;;;22.28;100.00;100743.63;5050988;28;20035;-54
2023/09/15 10:31:32;;;;;;;0.45;0.10;;;;;;;22.43;100.00;100740.19;5052708;28;20052;-51
2023/09/15 10:34:02;;;;;;;0.77;0.20;;;;;;;22.55;100.00;100743.47;5060729;28;20048;-55
2023/09/15 10:36:28;;;;;;;2.05;0.32;;;;;;;22.58;100.00;100736.72;5054023;28;20020;-52
2023/09/15 10:38:54;;;;;;;4.80;0.32;;;;;;;22.79;100.00;100726.78;5055689;28;20033;-52
2023/09/15 10:41:29;;;;;;;2.40;0.30;;;;;;;22.95;100.00;100728.47;5060551;28;20066;-52
2023/09/15 10:43:55;;;;;;;1.42;0.28;;;;;;;22.92;100.00;100722.75;5055156;28;20028;-51
2023/09/15 10:46:21;;;;;;;2.05;0.50;;;;;;;23.00;100.00;100715.00;5049964;28;20017;-53
2023/09/15 10:48:48;;;;;;;2.20;0.73;;;;;;;23.05;100.00;100708.75;5052093;28;20089;-52
2023/09/15 10:51:16;;;;;;;1.75;0.45;;;;;;;23.10;100.00;100700.66;5045657;28;20043;-51
2023/09/15 10:53:45;;;;;;;0.85;0.25;;;;;;;23.33;100.00;100709.31;5049591;28;20111;-55
2023/09/15 10:56:12;;;;;;;2.00;0.60;;;;;;;23.21;100.00;100698.78;5055065;28;20268;-53
2023/09/15 10:58:38;;;;;;;4.38;0.75;;;;;;;23.33;100.00;100696.59;5054203;28;20070;-52
2023/09/15 11:01:05;;;;;;;0.38;0.20;;;;;;;23.32;100.00;100696.88;5054584;28;20476;-53
2023/09/15 11:03:31;;;;;;;4.07;0.57;;;;;;;23.41;100.00;100689.84;5053951;28;20025;-50
2023/09/15 11:05:58;;;;;;;2.80;0.75;;;;;;;23.56;100.00;100679.00;5049666;28;20029;-49
2023/09/15 11:08:25;;;;;;;0.57;0.30;;;;;;;23.78;100.00;100680.63;5054257;28;20025;-52
2023/09/15 11:10:58;;;;;;;1.70;0.40;;;;;;;23.85;100.00;100675.72;5062296;28;20040;-54
2023/09/15 11:13:24;;;;;;;1.20;0.35;;;;;;;23.98;100.00;100680.56;5061643;28;20032;-49
2023/09/15 11:15:49;;;;;;;3.60;0.57;;;;;;;24.04;100.00;100673.25;5056720;28;20105;-49
2023/09/15 11:18:14;;;;;;;1.35;0.75;;;;;;;24.01;100.00;100677.31;5052707;28;20068;-52